Agios Georgios I — SX9857 — position and weather

sailwx.info

Track history (hours):
 
Tides and Currents Weather Stations Pressure Air Temp Water Temp Dewpoint Dewpoint Depression Visibility Wind Speed Wind Dir Waves Ship Positions

Agios Georgios I

Last reported at 2017-Mar-23 21:33 UTC. Time now 2017-Mar-23 22:17 UTC.
Position N 37°55' E 023°04'.

Length 59 m; draft 5 m.

Type: Ship (hazmat cat B). MMSI: 239912000.

Date/timePositionNaut miles runAvg speedWind from/ knotsBaromVisibWave heightAir tempDewpointWater temp
2017-Mar-23 21:33N 37°55' E 023°04'0 0.0
2017-Mar-23 20:34N 37°55' E 023°04'0 0.0
2017-Mar-23 19:33N 37°55' E 023°04'0 0.0
2017-Mar-23 18:33N 37°55' E 023°04'1 1.1
2017-Mar-23 17:33N 37°55' E 023°05'0 0.0
2017-Mar-23 16:33N 37°55' E 023°05'0 0.0
2017-Mar-23 15:33N 37°55' E 023°05'0 0.0
2017-Mar-23 14:33N 37°55' E 023°05'0 0.0
2017-Mar-23 13:33N 37°55' E 023°05'0 0.0
2017-Mar-23 03:23N 37°55' E 023°05'2 1.8
2017-Mar-23 02:19N 37°54' E 023°07'3 3.5
2017-Mar-23 01:32N 37°54' E 023°10'8 8.4
2017-Mar-23 00:33N 37°52' E 023°21'9 8.7
2017-Mar-22 23:33N 37°49' E 023°31'8 8.6
2017-Mar-22 22:33N 37°46' E 023°41'8 8.4
2017-Mar-22 21:33N 37°39' E 023°48'9 8.9
2017-Mar-22 20:32N 37°36' E 023°59'10 8.8
2017-Mar-22 19:25N 37°33' E 024°10'18 8.3
2017-Mar-22 17:15N 37°31' E 024°33'24 1.2
2017-Mar-21 20:10N 37°27' E 025°03'5 8.3
2017-Mar-21 19:33N 37°27' E 025°10'8 7.9
2017-Mar-21 18:33N 37°28' E 025°20'0 0.0
2017-Mar-21 17:33N 37°28' E 025°20'0 0.0
2017-Mar-21 16:33N 37°28' E 025°20'0 0.0
2017-Mar-21 15:33N 37°28' E 025°19'7 7.3
2017-Mar-21 14:33N 37°21' E 025°16'9 8.9
2017-Mar-21 13:33N 37°13' E 025°11'4 0.8
2017-Mar-21 09:07N 37°09' E 025°12'4 8.1
2017-Mar-21 08:33N 37°10' E 025°17'5 5.5
2017-Mar-21 07:33N 37°06' E 025°22'1 0.6
2017-Mar-21 06:33N 37°06' E 025°22'0 0.0
2017-Mar-21 05:33N 37°06' E 025°22'0 0.0
2017-Mar-21 04:33N 37°06' E 025°22'0 0.0
2017-Mar-21 03:33N 37°06' E 025°22'0 0.0
2017-Mar-21 02:33N 37°06' E 025°22'0 0.0
2017-Mar-21 01:33N 37°06' E 025°22'1 0.7
2017-Mar-21 00:33N 37°07' E 025°22'9 8.5
2017-Mar-20 23:33N 37°15' E 025°25'9 8.8
2017-Mar-20 22:33N 37°23' E 025°30'9 8.8
2017-Mar-20 21:33N 37°32' E 025°33'9 8.9
2017-Mar-20 20:33N 37°40' E 025°36'  
2017-Mar-17 03:28N 37°30' E 025°04'5 0.4
2017-Mar-16 15:33N 37°31' E 025°10'8 8.5
2017-Mar-16 14:33N 37°28' E 025°20'0 0.1
2017-Mar-16 13:33N 37°28' E 025°20'0 0.0
2017-Mar-16 12:33N 37°28' E 025°20'0 0.0
2017-Mar-16 11:33N 37°28' E 025°20'6 6.0
2017-Mar-16 10:33N 37°22' E 025°18'8 7.7
2017-Mar-16 09:33N 37°14' E 025°20'8 8.0
2017-Mar-16 08:33N 37°07' E 025°22'1 0.7
2017-Mar-16 07:33N 37°06' E 025°22'1 0.7
2017-Mar-16 06:33N 37°06' E 025°22'0 0.0
2017-Mar-16 05:33N 37°06' E 025°22'0 0.0
2017-Mar-16 04:33N 37°06' E 025°22'0 0.0
2017-Mar-16 03:33N 37°06' E 025°22'0 0.0
2017-Mar-16 02:33N 37°06' E 025°22'0 0.0
2017-Mar-16 01:33N 37°06' E 025°22'0 0.0
2017-Mar-16 00:33N 37°06' E 025°22'0 0.0
2017-Mar-15 23:33N 37°06' E 025°22'4 4.5
2017-Mar-15 22:33N 37°10' E 025°18'8 8.4
2017-Mar-15 21:33N 37°13' E 025°09'9 8.6
2017-Mar-15 20:33N 37°16' E 024°59'8 8.5
2017-Mar-15 19:33N 37°21' E 024°50'58 8.3
2017-Mar-15 12:33N 37°41' E 023°42'9 8.9
2017-Mar-15 11:33N 37°49' E 023°36'8 8.3
2017-Mar-15 10:33N 37°57' E 023°35'0 0.1
2017-Mar-15 09:26N 37°57' E 023°35'0 0.0
2017-Mar-15 08:33N 37°57' E 023°35'0 0.0
2017-Mar-15 07:33N 37°57' E 023°35'0 0.0
2017-Mar-15 06:33N 37°57' E 023°35'1 0.9
2017-Mar-15 05:34N 37°57' E 023°35'8 7.6
2017-Mar-15 04:33N 37°50' E 023°30'8 8.0
2017-Mar-15 03:33N 37°52' E 023°20'9 8.3
2017-Mar-15 02:31N 37°54' E 023°10'3 2.7
2017-Mar-15 01:23N 37°55' E 023°06'0 0.0
2017-Mar-14 23:12N 37°55' E 023°06'1 0.0
2017-Mar-14 11:31N 37°55' E 023°05'0 0.0
2017-Mar-14 10:33N 37°55' E 023°05'0 0.0
2017-Mar-14 09:33N 37°55' E 023°05'0 0.0
2017-Mar-14 08:33N 37°55' E 023°05'0 0.0
2017-Mar-14 07:33N 37°55' E 023°05'0 0.0
2017-Mar-14 06:33N 37°55' E 023°05'0 0.5
2017-Mar-14 05:33N 37°55' E 023°06'0 0.0
2017-Mar-14 04:33N 37°55' E 023°06'5 4.8
2017-Mar-14 03:33N 37°53' E 023°12'8 8.1
2017-Mar-14 02:33N 37°52' E 023°22'8 8.3
2017-Mar-14 01:33N 37°50' E 023°32'8 7.7
2017-Mar-14 00:33N 37°47' E 023°41'  
Track history (hours):
 
Tides and Currents Weather Stations Pressure Air Temp Water Temp Dewpoint Dewpoint Depression Visibility Wind Speed Wind Dir Waves Ship Positions

Agios Georgios I

Last reported at 2017-Mar-23 21:33 UTC. Time now 2017-Mar-23 22:17 UTC.
Position N 37°55' E 023°04'.

Length 59 m; draft 5 m.

Type: Ship (hazmat cat B). MMSI: 239912000.

Date/timePositionNaut miles runAvg speedWind from/ knotsBaromVisibWave heightAir tempDewpointWater temp
2017-Mar-23 21:33N 37°55' E 023°04'0 0.0
2017-Mar-23 20:34N 37°55' E 023°04'0 0.0
2017-Mar-23 19:33N 37°55' E 023°04'0 0.0
2017-Mar-23 18:33N 37°55' E 023°04'1 1.1
2017-Mar-23 17:33N 37°55' E 023°05'0 0.0
2017-Mar-23 16:33N 37°55' E 023°05'0 0.0
2017-Mar-23 15:33N 37°55' E 023°05'0 0.0
2017-Mar-23 14:33N 37°55' E 023°05'0 0.0
2017-Mar-23 13:33N 37°55' E 023°05'0 0.0
2017-Mar-23 03:23N 37°55' E 023°05'2 1.8
2017-Mar-23 02:19N 37°54' E 023°07'3 3.5
2017-Mar-23 01:32N 37°54' E 023°10'8 8.4
2017-Mar-23 00:33N 37°52' E 023°21'9 8.7
2017-Mar-22 23:33N 37°49' E 023°31'8 8.6
2017-Mar-22 22:33N 37°46' E 023°41'8 8.4
2017-Mar-22 21:33N 37°39' E 023°48'9 8.9
2017-Mar-22 20:32N 37°36' E 023°59'10 8.8
2017-Mar-22 19:25N 37°33' E 024°10'18 8.3
2017-Mar-22 17:15N 37°31' E 024°33'24 1.2
2017-Mar-21 20:10N 37°27' E 025°03'5 8.3
2017-Mar-21 19:33N 37°27' E 025°10'8 7.9
2017-Mar-21 18:33N 37°28' E 025°20'0 0.0
2017-Mar-21 17:33N 37°28' E 025°20'0 0.0
2017-Mar-21 16:33N 37°28' E 025°20'0 0.0
2017-Mar-21 15:33N 37°28' E 025°19'7 7.3
2017-Mar-21 14:33N 37°21' E 025°16'9 8.9
2017-Mar-21 13:33N 37°13' E 025°11'4 0.8
2017-Mar-21 09:07N 37°09' E 025°12'4 8.1
2017-Mar-21 08:33N 37°10' E 025°17'5 5.5
2017-Mar-21 07:33N 37°06' E 025°22'1 0.6
2017-Mar-21 06:33N 37°06' E 025°22'0 0.0
2017-Mar-21 05:33N 37°06' E 025°22'0 0.0
2017-Mar-21 04:33N 37°06' E 025°22'0 0.0
2017-Mar-21 03:33N 37°06' E 025°22'0 0.0
2017-Mar-21 02:33N 37°06' E 025°22'0 0.0
2017-Mar-21 01:33N 37°06' E 025°22'1 0.7
2017-Mar-21 00:33N 37°07' E 025°22'9 8.5
2017-Mar-20 23:33N 37°15' E 025°25'9 8.8
2017-Mar-20 22:33N 37°23' E 025°30'9 8.8
2017-Mar-20 21:33N 37°32' E 025°33'9 8.9
2017-Mar-20 20:33N 37°40' E 025°36'  
2017-Mar-17 03:28N 37°30' E 025°04'5 0.4
2017-Mar-16 15:33N 37°31' E 025°10'8 8.5
2017-Mar-16 14:33N 37°28' E 025°20'0 0.1
2017-Mar-16 13:33N 37°28' E 025°20'0 0.0
2017-Mar-16 12:33N 37°28' E 025°20'0 0.0
2017-Mar-16 11:33N 37°28' E 025°20'6 6.0
2017-Mar-16 10:33N 37°22' E 025°18'8 7.7
2017-Mar-16 09:33N 37°14' E 025°20'8 8.0
2017-Mar-16 08:33N 37°07' E 025°22'1 0.7
2017-Mar-16 07:33N 37°06' E 025°22'1 0.7
2017-Mar-16 06:33N 37°06' E 025°22'0 0.0
2017-Mar-16 05:33N 37°06' E 025°22'0 0.0
2017-Mar-16 04:33N 37°06' E 025°22'0 0.0
2017-Mar-16 03:33N 37°06' E 025°22'0 0.0
2017-Mar-16 02:33N 37°06' E 025°22'0 0.0
2017-Mar-16 01:33N 37°06' E 025°22'0 0.0
2017-Mar-16 00:33N 37°06' E 025°22'0 0.0
2017-Mar-15 23:33N 37°06' E 025°22'4 4.5
2017-Mar-15 22:33N 37°10' E 025°18'8 8.4
2017-Mar-15 21:33N 37°13' E 025°09'9 8.6
2017-Mar-15 20:33N 37°16' E 024°59'8 8.5
2017-Mar-15 19:33N 37°21' E 024°50'58 8.3
2017-Mar-15 12:33N 37°41' E 023°42'9 8.9
2017-Mar-15 11:33N 37°49' E 023°36'8 8.3
2017-Mar-15 10:33N 37°57' E 023°35'0 0.1
2017-Mar-15 09:26N 37°57' E 023°35'0 0.0
2017-Mar-15 08:33N 37°57' E 023°35'0 0.0
2017-Mar-15 07:33N 37°57' E 023°35'0 0.0
2017-Mar-15 06:33N 37°57' E 023°35'1 0.9
2017-Mar-15 05:34N 37°57' E 023°35'8 7.6
2017-Mar-15 04:33N 37°50' E 023°30'8 8.0
2017-Mar-15 03:33N 37°52' E 023°20'9 8.3
2017-Mar-15 02:31N 37°54' E 023°10'3 2.7
2017-Mar-15 01:23N 37°55' E 023°06'0 0.0
2017-Mar-14 23:12N 37°55' E 023°06'1 0.0
2017-Mar-14 11:31N 37°55' E 023°05'0 0.0
2017-Mar-14 10:33N 37°55' E 023°05'0 0.0
2017-Mar-14 09:33N 37°55' E 023°05'0 0.0
2017-Mar-14 08:33N 37°55' E 023°05'0 0.0
2017-Mar-14 07:33N 37°55' E 023°05'0 0.0
2017-Mar-14 06:33N 37°55' E 023°05'0 0.5
2017-Mar-14 05:33N 37°55' E 023°06'0 0.0
2017-Mar-14 04:33N 37°55' E 023°06'5 4.8
2017-Mar-14 03:33N 37°53' E 023°12'8 8.1
2017-Mar-14 02:33N 37°52' E 023°22'8 8.3
2017-Mar-14 01:33N 37°50' E 023°32'8 7.7
2017-Mar-14 00:33N 37°47' E 023°41'  

Dump ship's entire track history